Portada
METAR-TAF:

METAR-TAF

Aeroports :

Aeroport d'Ouagadougou

Ouagadougou, Burkina Faso

latitud: 12-21N, longitud: 001-31W, altitud: 316 m

Observació

L'informe es va fer fa 25 minuts, a les 05:00 UTC
Vent 3 kt del Nord
Temperatura 25°C
Humitat 79%
Pressió 1012 hPa
Visibilitat 10 km o més
sense núvols per sota de 1500 mi sense presència de cumulonimbus.

METAR: DFFD 200500Z 36003KT CAVOK 25/21 Q1012 NOSIG

Hora: 05:25 (05:25 UTC)

Pronòstic

L'informe es va fer fa 6 hores i 25 minuts, a les 23:00 UTC
Pronòstic vàlid del 20 a les 00 UTC al 21 a les 06 UTC
Vent 8 kt amb direcció variable
Visibilitat 10 km o més
sense núvols per sota de 1500 mi sense presència de cumulonimbus.
Temporalment
l' 20 a les 05 UTC al 20 a les 09 UTC
Visibilitat: 2000 m
Pols estès
Evolucionant progressivament
l' 20 a les 09 UTC al 20 a les 11 UTC
Visibilitat: 3500 m
Pols estès

TAF: DFFD 192300Z 2000/2106 VRB08KT CAVOK TEMPO 2005/2009 2000 DU BECMG 2009/2011 3500 DU

Observacions i pronòstics meteorològics de més de 4000 aeroports (METAR i TAF).

Les estacions disponibles són els punts grocs i vermells al mapa.

Posi el ratolí al punt desitjat per veure el nom de l'estació.

Feu clic per veure les observacions i els pronòstics meteorològics.

Per canviar el mapa: feu clic els botons verds amb una creu de color negre per apropar; al botó verd amb un guió per allunyar la imatge; o en les fletxes verdes per a mapes adjacents.


METAR-TAF: